Main page
METAR-TAF:

METAR-TAF

Airports :

Hawarden Airport

Hawarden, Wales

latitude: 53-10N, longitude: 002-59W, elevation: 10 m

Current weather observation

The report was made 3 hours and 8 minutes ago, at 17:50 UTC
Wind 9 kt from the Northwest
Temperature 17°C
Humidity 55%
Pressure 1019 hPa
Visibility 10 km or more
Few clouds at a height of 4800 ft

METAR: EGNR 201750Z 32009KT 9999 FEW048 17/08 Q1019

Time: 21:58 (20:58 UTC)

Forecast

The report was made 5 hours and 26 minutes ago, at 15:32 UTC
Forecast valid from 20 at 15 UTC to 20 at 18 UTC
Wind 8 kt from the Northwest
Visibility 10 km or more
no clouds below 1500 m and no cumulonimbus

TAF: EGNR 201532Z 2015/2018 31008KT CAVOK

Weather observations and forecasts of more than 4000 airports (METAR and TAF reports).

The available stations are represented by yellow and red dots on the map.

Hover mouse over dot to see the name of the station.

Then click to see weather observations and forecasts.

To change the map : click on the green buttons with a black cross to zoom in, on the green button with a dash to zoom out, or on the green arrows for adjacent maps.


METAR-TAF: